Time;durP1;ratioP1;P1;durP2;ratioP2;P2;SDS_P1;SDS_P2;PMS_P1;PMS_P2;Temp;Humidity;BMP_temperature;BMP_pressure;BME280_temperature;BME280_humidity;BME280_pressure;Samples;Min_cycle;Max_cycle;Signal;HPM_P1;HPM_P2
2022/06/13 00:01:09;;;;;;;;;;;;;;;15.12;100.00;102054.53;5088851;28;19930;-33
2022/06/13 00:03:36;;;;;;;;;;;;;;;15.12;100.00;102048.91;5089520;28;20266;-31
2022/06/13 00:06:04;;;;;;;;;;;;;;;15.12;100.00;102054.53;5089594;28;19928;-34
2022/06/13 00:08:31;;;;;;;;;;;;;;;15.13;100.00;102056.19;5089039;28;20350;-33
2022/06/13 00:11:00;;;;;;;;;;;;;;;15.13;100.00;102061.81;5091225;28;19935;-34
2022/06/13 00:13:28;;;;;;;;;;;;;;;15.12;100.00;102060.97;5091266;28;19932;-34
2022/06/13 00:15:56;;;;;;;;;;;;;;;15.13;100.00;102050.56;5090326;28;19924;-34
2022/06/13 00:18:24;;;;;;;;;;;;;;;15.13;100.00;102045.78;5091048;28;19925;-36
2022/06/13 00:20:53;;;;;;;;;;;;;;;15.13;100.00;102050.56;5091466;28;19930;-35
2022/06/13 00:23:21;;;;;;;;;;;;;;;15.13;100.00;102047.75;5090667;28;19924;-33
2022/06/13 00:25:49;;;;;;;;;;;;;;;15.14;100.00;102044.66;5091331;28;19925;-35
2022/06/13 00:28:17;;;;;;;;;;;;;;;15.13;100.00;102039.34;5090731;28;19928;-32
2022/06/13 00:30:45;;;;;;;;;;;;;;;15.13;100.00;102036.53;5091241;28;19939;-30
2022/06/13 00:33:13;;;;;;;;;;;;;;;15.12;100.00;102035.69;5091595;28;20009;-31
2022/06/13 00:35:40;;;;;;;;;;;;;;;15.12;100.00;102037.66;5090659;28;20296;-33
2022/06/13 00:38:08;;;;;;;;;;;;;;;15.11;100.00;102038.78;5087781;28;20389;-34
2022/06/13 00:40:36;;;;;;;;;;;;;;;15.10;100.00;102045.56;5091206;28;20381;-29
2022/06/13 00:43:05;;;;;;;;;;;;;;;15.08;100.00;102047.81;5090244;28;19947;-34
2022/06/13 00:45:35;;;;;;;;;;;;;;;15.08;100.00;102043.03;5091325;28;19947;-32
2022/06/13 00:48:03;;;;;;;;;;;;;;;15.07;100.00;102043.34;5091196;28;19930;-37
2022/06/13 00:50:33;;;;;;;;;;;;;;;15.06;100.00;102045.31;5090830;28;19924;-29
2022/06/13 00:53:03;;;;;;;;;;;;;;;15.06;100.00;102055.72;5091510;28;19935;-30
2022/06/13 00:55:33;;;;;;;;;;;;;;;15.04;100.00;102052.38;5085731;28;19925;-30
2022/06/13 00:58:01;;;;;;;;;;;;;;;15.01;100.00;102052.97;5090597;28;19924;-28
2022/06/13 01:00:30;;;;;;;;;;;;;;;14.98;100.00;102051.63;5090027;28;19939;-29
2022/06/13 01:03:01;;;;;;;;;;;;;;;14.98;100.00;102050.78;5090974;28;19924;-29
2022/06/13 01:05:30;;;;;;;;;;;;;;;14.99;100.00;102055.22;5090290;28;19946;-32
2022/06/13 01:08:00;;;;;;;;;;;;;;;14.97;99.70;102046.28;5090994;28;19979;-29
2022/06/13 01:13:13;;;;;;;;;;;;;;;14.92;98.31;102047.19;5091359;28;19924;-30
2022/06/13 01:15:54;;;;;;;;;;;;;;;14.92;98.63;102049.16;5090619;28;19930;-37
2022/06/13 01:18:42;;;;;;;;;;;;;;;14.91;99.01;102037.06;5090280;28;19924;-31
2022/06/13 01:21:16;;;;;;;;;;;;;;;14.93;99.93;102042.41;5087650;28;19928;-35
2022/06/13 01:24:03;;;;;;;;;;;;;;;14.92;99.84;102044.38;5091261;28;19934;-34
2022/06/13 01:26:45;;;;;;;;;;;;;;;14.91;99.70;102039.88;5088235;28;19924;-35
2022/06/13 01:29:27;;;;;;;;;;;;;;;14.89;99.17;102046.94;5094680;28;19946;-33
2022/06/13 01:31:59;;;;;;;;;;;;;;;14.86;98.58;102041.91;5090048;28;20368;-37
2022/06/13 01:34:34;;;;;;;;;;;;;;;14.85;98.50;102048.66;5091333;28;20381;-34
2022/06/13 01:37:06;;;;;;;;;;;;;;;14.85;98.54;102051.47;5094485;28;19924;-36
2022/06/13 01:39:37;;;;;;;;;;;;;;;14.81;98.23;102049.25;5093905;28;19931;-30
2022/06/13 01:42:10;;;;;;;;;;;;;;;14.79;97.83;102057.16;5089140;28;20371;-34
2022/06/13 01:44:44;;;;;;;;;;;;;;;14.79;98.26;102048.72;5094349;28;20300;-30
2022/06/13 01:47:19;;;;;;;;;;;;;;;14.76;96.50;102045.69;5087732;28;19924;-33
2022/06/13 01:49:54;;;;;;;;;;;;;;;14.71;93.60;102049.41;5094805;28;19924;-35
2022/06/13 01:52:26;;;;;;;;;;;;;;;14.69;92.27;102046.03;5088471;28;19924;-32
2022/06/13 01:54:56;;;;;;;;;;;;;;;14.68;90.80;102049.97;5093491;28;20016;-36
2022/06/13 01:57:30;;;;;;;;;;;;;;;14.67;89.68;102048.31;5093967;28;19924;-34
2022/06/13 02:00:03;;;;;;;;;;;;;;;14.67;90.27;102045.50;5093143;28;19925;-31
2022/06/13 02:02:35;;;;;;;;;;;;;;;14.68;90.13;102043.53;5094186;28;20356;-27
2022/06/13 02:05:05;;;;;;;;;;;;;;;14.66;89.47;102041.00;5093960;28;20027;-33
2022/06/13 02:07:39;;;;;;;;;;;;;;;14.65;89.91;102042.16;5093287;28;19928;-38
2022/06/13 02:10:28;;;;;;;;;;;;;;;14.64;90.13;102043.28;5094192;28;19928;-33
2022/06/13 02:13:01;;;;;;;;;;;;;;;14.63;90.52;102035.97;5094181;28;19924;-33
2022/06/13 02:15:31;;;;;;;;;;;;;;;14.65;91.22;102044.13;5093098;28;19924;-34
2022/06/13 02:18:03;;;;;;;;;;;;;;;14.62;91.69;102037.13;5093789;28;19928;-34
2022/06/13 02:20:36;;;;;;;;;;;;;;;14.61;92.33;102048.66;5093651;28;19931;-37
2022/06/13 02:23:07;;;;;;;;;;;;;;;14.59;92.22;102045.34;5092627;28;19990;-33
2022/06/13 02:25:37;;;;;;;;;;;;;;;14.57;92.15;102040.00;5093879;28;19923;-31
2022/06/13 02:28:06;;;;;;;;;;;;;;;14.54;92.38;102043.41;5092861;28;19925;-32
2022/06/13 02:30:36;;;;;;;;;;;;;;;14.54;93.01;102049.03;5093546;28;19938;-31
2022/06/13 02:33:08;;;;;;;;;;;;;;;14.53;93.84;102041.72;5093372;28;19930;-35
2022/06/13 02:35:38;;;;;;;;;;;;;;;14.53;94.87;102041.72;5092383;28;20353;-30
2022/06/13 02:38:08;;;;;;;;;;;;;;;14.53;95.50;102036.09;5093314;28;20290;-30
2022/06/13 02:40:38;;;;;;;;;;;;;;;14.52;95.92;102039.22;5093275;28;19935;-32
2022/06/13 02:43:10;;;;;;;;;;;;;;;14.51;95.77;102044.00;5092524;28;20141;-34
2022/06/13 02:45:41;;;;;;;;;;;;;;;14.47;95.87;102034.47;5093231;28;19924;-30
2022/06/13 02:48:15;;;;;;;;;;;;;;;14.47;95.83;102035.31;5093005;28;19924;-36
2022/06/13 02:50:46;;;;;;;;;;;;;;;14.47;95.77;102035.31;5081767;28;19938;-33
2022/06/13 02:53:18;;;;;;;;;;;;;;;14.48;95.76;102044.59;5093242;28;20026;-32
2022/06/13 02:55:52;;;;;;;;;;;;;;;14.47;95.82;102043.75;5092831;28;19972;-32
2022/06/13 02:58:25;;;;;;;;;;;;;;;14.46;95.69;102044.03;5081624;28;19947;-37
2022/06/13 03:00:56;;;;;;;;;;;;;;;14.47;95.62;102038.13;5093328;28;19931;-35
2022/06/13 03:03:31;;;;;;;;;;;;;;;14.46;95.35;102038.41;5080726;28;19932;-38
2022/06/13 03:06:01;;;;;;;;;;;;;;;14.45;95.53;102042.38;5092633;28;19924;-38
2022/06/13 03:08:33;;;;;;;;;;;;;;;14.45;95.46;102033.94;5092545;28;19999;-29
2022/06/13 03:11:05;;;;;;;;;;;;;;;14.45;95.73;102036.75;5090407;28;20312;-35
2022/06/13 03:13:37;;;;;;;;;;;;;;;14.45;96.28;102037.59;5092636;28;19924;-34
2022/06/13 03:16:08;;;;;;;;;;;;;;;14.44;96.07;102035.91;5089342;28;19935;-34
2022/06/13 03:18:40;;;;;;;;;;;;;;;14.44;96.02;102043.50;5091698;28;19977;-31
2022/06/13 03:21:11;;;;;;;;;;;;;;;14.44;96.07;102041.53;5091361;28;19928;-30
2022/06/13 03:23:42;;;;;;;;;;;;;;;14.44;97.07;102047.13;5088544;28;19924;-40
2022/06/13 03:26:12;;;;;;;;;;;;;;;14.45;97.52;102051.63;5090318;28;20388;-33
2022/06/13 03:28:43;;;;;;;;;;;;;;;14.46;97.53;102052.47;5091445;28;19924;-31
2022/06/13 03:31:15;;;;;;;;;;;;;;;14.43;97.26;102047.44;5091506;28;19924;-32
2022/06/13 03:33:45;;;;;;;;;;;;;;;14.42;96.64;102051.38;5092165;28;19964;-35
2022/06/13 03:36:15;;;;;;;;;;;;;;;14.43;97.18;102048.28;5092700;28;19965;-32
2022/06/13 03:38:45;;;;;;;;;;;;;;;14.43;97.81;102051.09;5091393;28;19928;-31
2022/06/13 03:41:16;;;;;;;;;;;;;;;14.44;98.24;102049.94;5092284;28;19935;-35
2022/06/13 03:43:46;;;;;;;;;;;;;;;14.44;98.16;102051.91;5092037;28;19946;-36
2022/06/13 03:46:17;;;;;;;;;;;;;;;14.44;98.28;102043.50;5091062;28;19928;-34
2022/06/13 03:48:51;;;;;;;;;;;;;;;14.44;98.33;102051.91;5090666;28;20393;-31
2022/06/13 03:51:20;;;;;;;;;;;;;;;14.41;98.76;102053.34;5092337;28;19931;-35
2022/06/13 03:53:48;;;;;;;;;;;;;;;14.41;99.14;102055.31;5091011;28;20292;-33
2022/06/13 03:56:19;;;;;;;;;;;;;;;14.38;99.46;102056.75;5091926;28;19924;-30
2022/06/13 03:58:48;;;;;;;;;;;;;;;14.38;99.25;102058.72;5091596;28;19935;-32
2022/06/13 04:01:18;;;;;;;;;;;;;;;14.36;99.57;102063.78;5091253;28;19924;-35
2022/06/13 04:03:47;;;;;;;;;;;;;;;14.34;99.86;102061.25;5091680;28;20242;-33
2022/06/13 04:06:32;;;;;;;;;;;;;;;14.31;100.00;102056.22;5091651;28;19928;-37
2022/06/13 04:09:01;;;;;;;;;;;;;;;14.27;100.00;102052.34;5091585;28;19974;-28
2022/06/13 04:11:33;;;;;;;;;;;;;;;14.25;100.00;102063.03;5091277;28;20376;-33
2022/06/13 04:14:08;;;;;;;;;;;;;;;14.21;100.00;102056.31;5090987;28;19935;-27
2022/06/13 04:16:45;;;;;;;;;;;;;;;14.20;100.00;102065.88;5091674;28;19928;-29
2022/06/13 04:19:27;;;;;;;;;;;;;;;14.24;100.00;102061.34;5091536;28;19977;-35
2022/06/13 04:22:00;;;;;;;;;;;;;;;14.30;100.00;102070.56;5091065;28;19985;-33
2022/06/13 04:24:34;;;;;;;;;;;;;;;14.36;100.00;102064.63;5091437;28;19936;-32
2022/06/13 04:27:06;;;;;;;;;;;;;;;14.44;100.00;102082.81;5091625;28;19931;-31
2022/06/13 04:29:38;;;;;;;;;;;;;;;14.43;100.00;102072.72;5090943;28;19924;-27
2022/06/13 04:32:08;;;;;;;;;;;;;;;14.36;100.00;102081.47;5091373;28;20019;-30
2022/06/13 04:34:44;;;;;;;;;;;;;;;14.32;100.00;102076.72;5090670;28;19977;-34
2022/06/13 04:37:13;;;;;;;;;;;;;;;14.22;100.00;102088.03;5091539;28;19931;-30
2022/06/13 04:39:41;;;;;;;;;;;;;;;14.14;100.00;102076.31;5091491;28;20023;-32
2022/06/13 04:42:10;;;;;;;;;;;;;;;14.11;100.00;102074.09;5089526;28;20323;-33
2022/06/13 04:44:40;;;;;;;;;;;;;;;14.12;100.00;102078.59;5090286;28;19932;-37
2022/06/13 04:47:08;;;;;;;;;;;;;;;14.16;100.00;102083.63;5090559;28;20368;-30
2022/06/13 04:49:41;;;;;;;;;;;;;;;14.18;100.00;102089.78;5089664;28;19946;-30
2022/06/13 04:52:12;;;;;;;;;;;;;;;14.18;100.00;102082.19;5091268;28;20362;-36
2022/06/13 04:54:42;;;;;;;;;;;;;;;14.22;100.00;102088.03;5091310;28;20027;-30
2022/06/13 04:57:12;;;;;;;;;;;;;;;14.25;100.00;102084.66;5090137;28;20460;-35
2022/06/13 04:59:40;;;;;;;;;;;;;;;14.30;100.00;102088.25;5093295;28;19978;-35
2022/06/13 05:02:12;;;;;;;;;;;;;;;14.34;100.00;102078.13;5094974;28;19930;-28
2022/06/13 05:04:41;;;;;;;;;;;;;;;14.37;100.00;102082.31;5091706;28;20065;-30
2022/06/13 05:07:11;;;;;;;;;;;;;;;14.38;100.00;102084.81;5090910;28;19950;-27
2022/06/13 05:09:42;;;;;;;;;;;;;;;14.38;100.00;102084.81;5093186;28;19928;-36
2022/06/13 05:12:13;;;;;;;;;;;;;;;14.41;100.00;102087.03;5093256;28;19979;-34
2022/06/13 05:14:43;;;;;;;;;;;;;;;14.46;100.00;102103.03;5093766;28;19934;-36
2022/06/13 05:17:22;;;;;;;;;;;;;;;14.48;100.00;102106.38;5092940;28;19934;-33
2022/06/13 05:19:57;;;;;;;;;;;;;;;14.51;100.00;102104.94;5093972;28;20244;-33
2022/06/13 05:22:34;;;;;;;;;;;;;;;14.53;100.00;102109.16;5094214;28;20296;-32
2022/06/13 05:25:13;;;;;;;;;;;;;;;14.57;100.00;102117.81;5093072;28;19924;-35
2022/06/13 05:27:41;;;;;;;;;;;;;;;14.57;100.00;102113.03;5093639;28;19962;-30
2022/06/13 05:30:11;;;;;;;;;;;;;;;14.57;100.00;102115.84;5093320;28;20351;-31
2022/06/13 05:32:39;;;;;;;;;;;;;;;14.58;100.00;102114.72;5092561;28;19924;-34
2022/06/13 05:35:12;;;;;;;;;;;;;;;14.60;100.00;102126.47;5093192;28;20396;-34
2022/06/13 05:37:40;;;;;;;;;;;;;;;14.63;100.00;102131.50;5091793;28;19928;-36
2022/06/13 05:40:09;;;;;;;;;;;;;;;14.62;100.00;102129.81;5093002;28;20011;-34
2022/06/13 05:42:37;;;;;;;;;;;;;;;14.63;100.00;102130.66;5093560;28;20019;-36
2022/06/13 05:45:05;;;;;;;;;;;;;;;14.66;100.00;102124.47;5092286;28;19970;-34
2022/06/13 05:47:32;;;;;;;;;;;;;;;14.71;100.00;102132.84;5093404;28;19934;-33
2022/06/13 05:50:00;;;;;;;;;;;;;;;14.74;100.00;102135.06;5093113;28;19928;-34
2022/06/13 05:52:29;;;;;;;;;;;;;;;14.71;100.00;102136.50;5090889;28;20024;-33
2022/06/13 05:54:57;;;;;;;;;;;;;;;14.70;100.00;102137.63;5093031;28;20478;-34
2022/06/13 05:57:44;;;;;;;;;;;;;;;14.70;100.00;102134.81;5093324;28;19935;-35
2022/06/13 06:00:15;;;;;;;;;;;;;;;14.71;100.00;102144.94;5092265;28;20023;-35
2022/06/13 06:02:43;;;;;;;;;;;;;;;14.72;99.61;102140.16;5091487;28;19928;-34
2022/06/13 06:05:11;;;;;;;;;;;;;;;14.79;99.92;102149.88;5092729;28;19970;-30
2022/06/13 06:07:40;;;;;;;;;;;;;;;14.93;100.00;102154.81;5091515;28;20038;-30
2022/06/13 06:10:12;;;;;;;;;;;;;;;15.05;99.74;102152.44;5091665;28;19964;-32
2022/06/13 06:12:39;;;;;;;;;;;;;;;15.14;98.63;102159.94;5092911;28;19928;-34
2022/06/13 06:15:07;;;;;;;;;;;;;;;15.25;98.40;102154.19;5091461;28;19950;-32
2022/06/13 06:17:35;;;;;;;;;;;;;;;15.37;97.84;102169.50;5092390;28;19931;-35
2022/06/13 06:20:03;;;;;;;;;;;;;;;15.54;97.51;102169.03;5091858;28;19924;-35
2022/06/13 06:22:31;;;;;;;;;;;;;;;15.71;97.53;102175.00;5092492;28;20412;-30
2022/06/13 06:25:00;;;;;;;;;;;;;;;15.90;97.17;102182.63;5092324;28;20385;-36
2022/06/13 06:27:28;;;;;;;;;;;;;;;16.01;95.05;102173.72;5087997;28;20044;-28
2022/06/13 06:29:56;;;;;;;;;;;;;;;16.14;94.71;102180.59;5092430;28;20025;-30
2022/06/13 06:32:23;;;;;;;;;;;;;;;16.39;94.15;102179.34;5091974;28;19931;-34
2022/06/13 06:34:51;;;;;;;;;;;;;;;16.65;92.79;102186.28;5091480;28;19930;-36
2022/06/13 06:37:18;;;;;;;;;;;;;;;16.96;90.38;102180.94;5092781;28;19928;-31
2022/06/13 06:39:47;;;;;;;;;;;;;;;17.21;88.67;102188.91;5093091;28;19928;-33
2022/06/13 06:42:16;;;;;;;;;;;;;;;17.31;86.56;102185.06;5092405;28;20047;-35
2022/06/13 06:45:03;;;;;;;;;;;;;;;17.45;83.72;102196.34;5092487;28;20418;-30
2022/06/13 06:47:31;;;;;;;;;;;;;;;17.47;82.00;102194.88;5091492;28;20039;-33
2022/06/13 06:49:59;;;;;;;;;;;;;;;17.43;81.03;102193.00;5091733;28;20359;-33
2022/06/13 06:52:26;;;;;;;;;;;;;;;17.53;82.71;102204.09;5093156;28;19924;-36
2022/06/13 07:00:26;;;;;;;;;;;;;;;19.22;77.58;102199.78;5091147;28;19950;-31
2022/06/13 07:02:53;;;;;;;;;;;;;;;19.61;74.42;102208.31;5092138;28;20292;-34
2022/06/13 07:05:21;;;;;;;;;;;;;;;19.61;70.45;102211.13;5092614;28;19955;-30
2022/06/13 07:07:49;;;;;;;;;;;;;;;19.76;72.09;102209.88;5091026;28;20034;-37
2022/06/13 07:10:17;;;;;;;;;;;;;;;20.18;70.90;102208.25;5091807;28;19924;-38
2022/06/13 07:12:46;;;;;;;;;;;;;;;20.62;67.28;102204.31;5092836;28;19967;-33
2022/06/13 07:15:14;;;;;;;;;;;;;;;20.82;65.77;102214.13;5092580;28;19924;-34
2022/06/13 07:17:42;;;;;;;;;;;;;;;21.01;65.40;102221.44;5091682;28;19928;-36
2022/06/13 07:20:11;;;;;;;;;;;;;;;21.26;63.00;102212.91;5092283;28;19925;-40
2022/06/13 07:22:45;;;;;;;;;;;;;;;21.56;61.70;102218.63;5091731;28;19931;-34
2022/06/13 07:25:15;;;;;;;;;;;;;;;22.03;59.08;102219.41;5091687;28;19928;-38
2022/06/13 07:27:43;;;;;;;;;;;;;;;22.45;56.08;102213.75;5092350;28;19924;-30
2022/06/13 07:30:13;;;;;;;;;;;;;;;22.89;55.21;102227.28;5092352;28;19924;-33
2022/06/13 07:32:41;;;;;;;;;;;;;;;23.32;54.21;102223.13;5092268;28;19924;-34
2022/06/13 07:35:09;;;;;;;;;;;;;;;23.73;53.09;102230.69;5092016;28;19928;-39
2022/06/13 07:40:23;;;;;;;;;;;;;;;24.51;50.21;102233.22;5081762;28;20038;-30
2022/06/13 07:42:52;;;;;;;;;;;;;;;24.77;49.91;102241.34;5092033;28;20456;-36
2022/06/13 07:45:23;;;;;;;;;;;;;;;25.12;47.12;102238.72;5091079;28;19931;-32
2022/06/13 07:48:11;;;;;;;;;;;;;;;25.26;47.04;102244.81;5083045;28;20300;-33
2022/06/13 07:50:40;;;;;;;;;;;;;;;25.27;46.70;102246.47;5080752;28;19924;-30
2022/06/13 07:53:07;;;;;;;;;;;;;;;25.18;46.92;102250.72;5091179;28;19924;-32
2022/06/13 07:55:35;;;;;;;;;;;;;;;25.33;46.88;102256.47;5091918;28;19950;-41
2022/06/13 07:58:03;;;;;;;;;;;;;;;25.61;45.33;102253.50;5091841;28;19928;-39
2022/06/13 08:00:34;;;;;;;;;;;;;;;25.80;44.84;102258.53;5090925;28;20376;-33
2022/06/13 08:03:02;;;;;;;;;;;;;;;25.80;43.48;102257.69;5089183;28;20022;-34
2022/06/13 08:05:30;;;;;;;;;;;;;;;25.53;43.70;102260.25;5090423;28;19928;-31
2022/06/13 08:07:59;;;;;;;;;;;;;;;25.11;45.02;102265.63;5090560;28;19924;-33
2022/06/13 08:10:26;;;;;;;;;;;;;;;24.70;45.62;102275.38;5091488;28;19935;-37
2022/06/13 08:12:54;;;;;;;;;;;;;;;24.39;45.53;102270.34;5090851;28;19924;-30
2022/06/13 08:15:24;;;;;;;;;;;;;;;24.35;47.78;102270.25;5091757;28;19924;-32
2022/06/13 08:17:53;;;;;;;;;;;;;;;24.61;48.00;102277.53;5088555;28;19969;-33
2022/06/13 08:20:20;;;;;;;;;;;;;;;25.01;48.11;102272.69;5090908;28;20380;-38
2022/06/13 08:22:49;;;;;;;;;;;;;;;25.36;48.36;102278.59;5091432;28;19928;-31
2022/06/13 08:25:18;;;;;;;;;;;;;;;25.72;45.50;102283.25;5091473;28;20023;-33
2022/06/13 08:27:47;;;;;;;;;;;;;;;26.09;44.53;102283.78;5090444;28;20023;-38
2022/06/13 08:30:15;;;;;;;;;;;;;;;26.16;42.14;102286.00;5090618;28;20031;-34
2022/06/13 08:32:43;;;;;;;;;;;;;;;26.13;42.85;102295.34;5091977;28;19927;-38
2022/06/13 08:35:14;;;;;;;;;;;;;;;26.19;42.92;102290.13;5094932;28;19930;-35
2022/06/13 08:37:42;;;;;;;;;;;;;;;26.48;44.67;102297.41;5095386;28;19939;-30
2022/06/13 08:40:10;;;;;;;;;;;;;;;26.76;43.28;102298.06;5095437;28;19928;-33
2022/06/13 08:42:41;;;;;;;;;;;;;;;26.76;40.67;102309.53;5094857;28;19924;-31
2022/06/13 08:45:13;;;;;;;;;;;;;;;26.74;41.84;102306.22;5095563;28;19925;-30
2022/06/13 08:47:43;;;;;;;;;;;;;;;26.73;40.86;102302.50;5094703;28;19927;-43
2022/06/13 08:50:20;;;;;;;;;;;;;;;26.85;40.67;102315.84;5095491;28;20216;-34
2022/06/13 08:52:52;;;;;;;;;;;;;;;26.86;39.44;102308.91;5085167;28;19924;-35
2022/06/13 08:55:23;;;;;;;;;;;;;;;26.87;40.10;102324.91;5094793;28;20303;-30
2022/06/13 08:57:54;;;;;;;;;;;;;;;27.08;41.85;102324.56;5093959;28;19924;-39
2022/06/13 09:00:24;;;;;;;;;;;;;;;27.16;40.47;102328.44;5084576;28;20281;-32
2022/06/13 09:02:55;;;;;;;;;;;;;;;26.73;39.24;102334.03;5094286;28;19938;-30
2022/06/13 09:05:28;;;;;;;;;;;;;;;26.15;40.65;102335.84;5095325;28;19977;-32
2022/06/13 09:07:59;;;;;;;;;;;;;;;26.06;41.37;102332.34;5095187;28;19930;-32
2022/06/13 09:10:31;;;;;;;;;;;;;;;26.36;41.77;102341.31;5094344;28;19924;-32
2022/06/13 09:13:01;;;;;;;;;;;;;;;26.57;41.34;102338.13;5094951;28;19931;-37
2022/06/13 09:15:32;;;;;;;;;;;;;;;26.78;41.08;102341.47;5094660;28;19929;-30
2022/06/13 09:18:01;;;;;;;;;;;;;;;26.91;39.68;102342.19;5093169;28;19928;-31
2022/06/13 09:20:35;;;;;;;;;;;;;;;26.71;39.03;102353.59;5094819;28;19924;-36
2022/06/13 09:23:10;;;;;;;;;;;;;;;26.63;40.60;102348.91;5093929;28;19924;-32
2022/06/13 09:25:41;;;;;;;;;;;;;;;26.72;39.97;102348.72;5094269;28;19935;-30
2022/06/13 09:28:12;;;;;;;;;;;;;;;26.91;39.63;102351.59;5094345;28;20372;-30
2022/06/13 09:30:44;;;;;;;;;;;;;;;27.11;40.02;102341.03;5094207;28;19924;-30
2022/06/13 09:33:14;;;;;;;;;;;;;;;27.22;41.14;102341.22;5094692;28;19928;-35
2022/06/13 09:35:46;;;;;;;;;;;;;;;27.47;40.41;102356.09;5094541;28;19928;-33
2022/06/13 09:38:17;;;;;;;;;;;;;;;27.77;39.55;102348.53;5092171;28;20476;-36
2022/06/13 09:40:52;;;;;;;;;;;;;;;27.98;37.59;102354.63;5094344;28;20292;-34
2022/06/13 09:43:28;;;;;;;;;;;;;;;28.13;38.09;102355.72;5094562;28;19924;-37
2022/06/13 09:46:01;;;;;;;;;;;;;;;28.25;37.53;102364.16;5092774;28;20317;-36
2022/06/13 09:48:45;;;;;;;;;;;;;;;27.80;35.64;102364.94;5094077;28;20019;-36
2022/06/13 09:51:21;;;;;;;;;;;;;;;27.15;37.54;102369.75;5092567;28;19925;-32
2022/06/13 09:53:53;;;;;;;;;;;;;;;27.01;40.07;102378.84;5094324;28;19932;-30
2022/06/13 09:56:29;;;;;;;;;;;;;;;27.05;39.09;102374.88;5094255;28;20284;-31
2022/06/13 09:59:04;;;;;;;;;;;;;;;26.71;38.80;102370.78;5093345;28;20256;-38
2022/06/13 10:01:35;;;;;;;;;;;;;;;26.52;41.14;102373.59;5093750;28;20407;-31
2022/06/13 10:04:05;;;;;;;;;;;;;;;26.66;40.23;102375.97;5094057;28;19924;-31
2022/06/13 10:06:44;;;;;;;;;;;;;;;26.81;40.32;102377.13;5093243;28;19977;-33
2022/06/13 10:09:25;;;;;;;;;;;;;;;27.06;40.30;102375.69;5093789;28;19930;-36
2022/06/13 10:11:56;;;;;;;;;;;;;;;27.08;38.13;102385.59;5092774;28;19929;-31
2022/06/13 10:14:48;;;;;;;;;;;;;;;26.66;37.99;102382.53;5093323;28;20014;-33
2022/06/13 10:17:23;;;;;;;;;;;;;;;26.00;40.40;102385.31;5078236;28;19924;-31
2022/06/13 10:19:55;;;;;;;;;;;;;;;25.53;40.15;102386.03;5093240;28;19932;-31
2022/06/13 10:22:38;;;;;;;;;;;;;;;25.31;40.48;102380.91;5093744;28;20387;-39
2022/06/13 10:25:16;;;;;;;;;;;;;;;25.20;42.70;102379.72;5093294;28;19928;-31
2022/06/13 10:27:48;;;;;;;;;;;;;;;25.14;41.86;102384.06;5092764;28;19946;-36
2022/06/13 10:30:20;;;;;;;;;;;;;;;24.98;43.06;102390.50;5093219;28;19930;-32
2022/06/13 10:33:01;;;;;;;;;;;;;;;24.79;42.23;102386.59;5092423;28;19924;-35
2022/06/13 10:35:33;;;;;;;;;;;;;;;24.57;44.05;102385.94;5092119;28;20446;-36
2022/06/13 10:38:18;;;;;;;;;;;;;;;24.78;47.55;102391.47;5093423;28;20018;-31
2022/06/13 10:40:46;;;;;;;;;;;;;;;25.21;44.29;102392.81;5091429;28;19966;-38
2022/06/13 10:43:13;;;;;;;;;;;;;;;25.59;43.83;102395.16;5093405;28;19928;-32
2022/06/13 10:45:42;;;;;;;;;;;;;;;25.97;42.18;102395.47;5092916;28;19973;-37
2022/06/13 10:48:13;;;;;;;;;;;;;;;26.28;42.30;102390.94;5092121;28;19932;-35
2022/06/13 10:50:45;;;;;;;;;;;;;;;26.59;40.46;102402.41;5093009;28;19931;-37
2022/06/13 10:53:19;;;;;;;;;;;;;;;26.75;40.18;102399.53;5092892;28;19928;-33
2022/06/13 10:55:47;;;;;;;;;;;;;;;26.83;40.25;102409.94;5091766;28;19954;-34
2022/06/13 10:58:18;;;;;;;;;;;;;;;26.94;39.36;102399.59;5092331;28;20229;-31
2022/06/13 11:01:01;;;;;;;;;;;;;;;27.20;40.33;102407.53;5092940;28;20222;-31
2022/06/13 11:03:29;;;;;;;;;;;;;;;27.44;39.48;102407.25;5089542;28;19924;-31
2022/06/13 11:05:59;;;;;;;;;;;;;;;27.64;38.88;102402.34;5092463;28;19924;-31
2022/06/13 11:08:29;;;;;;;;;;;;;;;27.79;38.32;102407.16;5091769;28;19930;-32
2022/06/13 11:11:04;;;;;;;;;;;;;;;27.74;37.25;102396.00;5087591;28;20338;-31
2022/06/13 11:13:34;;;;;;;;;;;;;;;27.81;38.89;102418.25;5092477;28;19931;-40
2022/06/13 11:24:25;;;;;;;;;;;;;;;27.74;37.93;102413.22;5090862;28;19924;-38
2022/06/13 11:29:38;;;;;;;;;;;;;;;27.78;38.35;102430.50;5091422;28;19924;-32
2022/06/13 11:32:18;;;;;;;;;;;;;;;27.83;38.25;102426.47;5092031;28;19928;-36
2022/06/13 11:34:46;;;;;;;;;;;;;;;27.92;38.67;102429.97;5091983;28;19935;-38
2022/06/13 11:37:18;;;;;;;;;;;;;;;28.04;38.27;102421.16;5090951;28;19924;-31
2022/06/13 11:39:49;;;;;;;;;;;;;;;28.20;38.54;102424.75;5092032;28;19934;-31
2022/06/13 11:42:18;;;;;;;;;;;;;;;28.28;38.28;102417.94;5091987;28;20513;-34
2022/06/13 11:44:48;;;;;;;;;;;;;;;28.28;36.58;102429.44;5088023;28;19939;-39
2022/06/13 11:47:17;;;;;;;;;;;;;;;28.28;37.26;102420.81;5091769;28;19924;-37
2022/06/13 11:49:46;;;;;;;;;;;;;;;28.09;37.33;102417.97;5091643;28;19932;-31
2022/06/13 11:55:28;;;;;;;;;;;;;;;27.81;37.37;102432.59;5090388;28;19936;-32
2022/06/13 11:57:56;;;;;;;;;;;;;;;27.78;38.54;102431.31;5090901;28;19932;-33
2022/06/13 12:00:26;;;;;;;;;;;;;;;27.77;38.48;102435.44;5091751;28;19946;-32
2022/06/13 12:02:56;;;;;;;;;;;;;;;27.69;37.78;102430.75;5091583;28;19924;-31
2022/06/13 12:05:28;;;;;;;;;;;;;;;27.50;38.61;102438.50;5090948;28;19924;-30
2022/06/13 12:07:58;;;;;;;;;;;;;;;27.41;38.98;102445.25;5086030;28;20473;-30
2022/06/13 12:10:29;;;;;;;;;;;;;;;27.45;38.97;102446.19;5091427;28;19932;-32
2022/06/13 12:12:56;;;;;;;;;;;;;;;27.46;38.54;102441.28;5090777;28;19924;-31
2022/06/13 12:15:28;;;;;;;;;;;;;;;27.39;39.13;102441.94;5091686;28;19931;-31
2022/06/13 12:18:00;;;;;;;;;;;;;;;27.31;38.58;102442.19;5091437;28;19927;-33
2022/06/13 12:20:32;;;;;;;;;;;;;;;27.20;38.18;102438.22;5090098;28;20316;-37
2022/06/13 12:23:02;;;;;;;;;;;;;;;27.16;38.57;102443.91;5091472;28;19924;-31
2022/06/13 12:25:33;;;;;;;;;;;;;;;27.19;39.28;102440.25;5091730;28;19925;-32
2022/06/13 12:28:03;;;;;;;;;;;;;;;27.14;38.14;102448.34;5090745;28;20019;-30
2022/06/13 12:30:42;;;;;;;;;;;;;;;26.83;39.07;102447.16;5081518;28;20000;-30
2022/06/13 12:33:16;;;;;;;;;;;;;;;26.74;38.40;102446.56;5090661;28;19930;-31
2022/06/13 12:35:50;;;;;;;;;;;;;;;26.67;40.86;102450.06;5091519;28;19928;-35
2022/06/13 12:38:23;;;;;;;;;;;;;;;26.50;38.90;102443.91;5091642;28;20027;-31
2022/06/13 12:40:58;;;;;;;;;;;;;;;26.42;40.07;102448.59;5090675;28;19969;-30
2022/06/13 12:43:36;;;;;;;;;;;;;;;26.51;40.18;102451.28;5091302;28;20447;-31
2022/06/13 12:46:14;;;;;;;;;;;;;;;26.51;39.80;102449.25;5091426;28;19924;-36
2022/06/13 12:48:47;;;;;;;;;;;;;;;26.59;41.59;102453.94;5090463;28;20332;-26
2022/06/13 12:51:17;;;;;;;;;;;;;;;26.72;41.12;102458.38;5091147;28;20010;-31
2022/06/13 12:54:12;;;;;;;;;;;;;;;26.73;39.58;102456.34;5091108;28;19931;-28
2022/06/13 12:56:45;;;;;;;;;;;;;;;26.83;40.14;102458.63;5055250;28;20011;-28
2022/06/13 12:59:18;;;;;;;;;;;;;;;26.78;38.83;102456.88;5091298;28;19924;-31
2022/06/13 13:01:50;;;;;;;;;;;;;;;26.63;39.31;102457.72;5090128;28;20408;-29
2022/06/13 13:04:26;;;;;;;;;;;;;;;26.45;40.66;102461.34;5091047;28;19928;-28
2022/06/13 13:06:58;;;;;;;;;;;;;;;26.20;39.57;102460.63;5090870;28;20376;-28
2022/06/13 13:09:42;;;;;;;;;;;;;;;26.08;40.42;102464.41;5090299;28;20016;-32
2022/06/13 13:12:23;;;;;;;;;;;;;;;26.02;40.52;102463.00;5091340;28;19931;-31
2022/06/13 13:14:55;;;;;;;;;;;;;;;26.01;40.78;102464.22;5090902;28;19967;-32
2022/06/13 13:17:31;;;;;;;;;;;;;;;25.88;40.34;102456.91;5090355;28;20018;-29
2022/06/13 13:20:02;;;;;;;;;;;;;;;25.94;40.16;102458.31;5091614;28;20304;-30
2022/06/13 13:22:32;;;;;;;;;;;;;;;25.87;39.40;102458.09;5093475;28;20109;-27